sensor_id;sensor_type;location;lat;lon;timestamp;pressure;altitude;pressure_sealevel;temperature;humidity
51249;BME280;39642;47.556;18.728;2023-04-06T00:01:48;99764.66;;;20.13;22.21
51249;BME280;39642;47.556;18.728;2023-04-06T00:04:13;99752.34;;;20.12;22.09
51249;BME280;39642;47.556;18.728;2023-04-06T00:06:39;99752.34;;;20.12;22.00
51249;BME280;39642;47.556;18.728;2023-04-06T00:09:05;99754.16;;;20.12;22.10
51249;BME280;39642;47.556;18.728;2023-04-06T00:11:31;99750.66;;;20.11;22.15
51249;BME280;39642;47.556;18.728;2023-04-06T00:13:57;99752.34;;;20.12;22.02
51249;BME280;39642;47.556;18.728;2023-04-06T00:16:23;99751.50;;;20.12;21.96
51249;BME280;39642;47.556;18.728;2023-04-06T00:18:49;99759.38;;;20.13;22.05
51249;BME280;39642;47.556;18.728;2023-04-06T00:21:15;99748.78;;;20.13;21.99
51249;BME280;39642;47.556;18.728;2023-04-06T00:23:41;99751.31;;;20.15;21.79
51249;BME280;39642;47.556;18.728;2023-04-06T00:26:10;99754.84;;;20.15;21.97
51249;BME280;39642;47.556;18.728;2023-04-06T00:28:37;99754.84;;;20.15;21.77
51249;BME280;39642;47.556;18.728;2023-04-06T00:31:03;99751.25;;;20.16;21.79
51249;BME280;39642;47.556;18.728;2023-04-06T00:33:29;99756.47;;;20.18;21.83
51249;BME280;39642;47.556;18.728;2023-04-06T00:35:55;99754.66;;;20.18;21.83
51249;BME280;39642;47.556;18.728;2023-04-06T00:38:21;99752.00;;;20.18;21.84
51249;BME280;39642;47.556;18.728;2023-04-06T00:40:47;99748.41;;;20.20;21.78
51249;BME280;39642;47.556;18.728;2023-04-06T00:43:13;99740.47;;;20.20;21.84
51249;BME280;39642;47.556;18.728;2023-04-06T00:45:40;99740.47;;;20.20;21.91
51249;BME280;39642;47.556;18.728;2023-04-06T00:48:07;99740.41;;;20.21;21.73
51249;BME280;39642;47.556;18.728;2023-04-06T00:50:34;99735.97;;;20.22;21.82
51249;BME280;39642;47.556;18.728;2023-04-06T00:53:00;99738.72;;;20.20;21.96
51249;BME280;39642;47.556;18.728;2023-04-06T00:55:27;99738.72;;;20.20;21.78
51249;BME280;39642;47.556;18.728;2023-04-06T00:57:54;99729.91;;;20.20;21.92
51249;BME280;39642;47.556;18.728;2023-04-06T01:00:20;99734.34;;;20.19;21.93
51249;BME280;39642;47.556;18.728;2023-04-06T01:02:46;99730.09;;;20.16;21.99
51249;BME280;39642;47.556;18.728;2023-04-06T01:05:13;99726.63;;;20.16;21.77
51249;BME280;39642;47.556;18.728;2023-04-06T01:07:39;99731.06;;;20.15;22.04
51249;BME280;39642;47.556;18.728;2023-04-06T01:10:05;99724.88;;;20.15;21.97
51249;BME280;39642;47.556;18.728;2023-04-06T01:12:32;99731.97;;;20.14;21.95
51249;BME280;39642;47.556;18.728;2023-04-06T01:14:58;99738.22;;;20.13;21.78
51249;BME280;39642;47.556;18.728;2023-04-06T01:17:24;99732.09;;;20.13;21.87
51249;BME280;39642;47.556;18.728;2023-04-06T01:19:49;99731.22;;;20.12;22.09
51249;BME280;39642;47.556;18.728;2023-04-06T01:22:17;99732.16;;;20.11;21.94
51249;BME280;39642;47.556;18.728;2023-04-06T01:24:43;99733.00;;;20.12;21.84
51249;BME280;39642;47.556;18.728;2023-04-06T01:27:09;99733.97;;;20.11;22.00
51249;BME280;39642;47.556;18.728;2023-04-06T01:29:35;99729.59;;;20.10;21.73
51249;BME280;39642;47.556;18.728;2023-04-06T01:32:01;99728.75;;;20.09;21.75
51249;BME280;39642;47.556;18.728;2023-04-06T01:34:27;99729.59;;;20.10;21.84
51249;BME280;39642;47.556;18.728;2023-04-06T01:36:53;99727.81;;;20.10;21.72
51249;BME280;39642;47.556;18.728;2023-04-06T01:39:19;99727.81;;;20.10;21.79
51249;BME280;39642;47.556;18.728;2023-04-06T01:41:45;99715.47;;;20.11;21.79
51249;BME280;39642;47.556;18.728;2023-04-06T01:44:16;99719.78;;;20.12;21.59
51249;BME280;39642;47.556;18.728;2023-04-06T01:46:43;99724.25;;;20.11;21.78
51249;BME280;39642;47.556;18.728;2023-04-06T01:49:09;99724.25;;;20.11;21.65
51249;BME280;39642;47.556;18.728;2023-04-06T01:51:35;99717.06;;;20.13;21.63
51249;BME280;39642;47.556;18.728;2023-04-06T01:54:01;99720.56;;;20.14;21.75
51249;BME280;39642;47.556;18.728;2023-04-06T01:56:26;99722.25;;;20.15;21.56
51249;BME280;39642;47.556;18.728;2023-04-06T01:58:52;99721.41;;;20.14;21.62
51249;BME280;39642;47.556;18.728;2023-04-06T02:01:18;99709.91;;;20.15;21.63
51249;BME280;39642;47.556;18.728;2023-04-06T02:03:44;99705.47;;;20.16;21.68
51249;BME280;39642;47.556;18.728;2023-04-06T02:06:10;99707.16;;;20.17;21.63
51249;BME280;39642;47.556;18.728;2023-04-06T02:08:36;99708.88;;;20.18;21.83
51249;BME280;39642;47.556;18.728;2023-04-06T02:11:02;99706.13;;;20.20;21.67
51249;BME280;39642;47.556;18.728;2023-04-06T02:13:28;99702.63;;;20.19;21.67
51249;BME280;39642;47.556;18.728;2023-04-06T02:15:54;99703.47;;;20.20;21.69
51249;BME280;39642;47.556;18.728;2023-04-06T02:18:20;99708.03;;;20.17;21.64
51249;BME280;39642;47.556;18.728;2023-04-06T02:20:46;99706.31;;;20.16;21.64
51249;BME280;39642;47.556;18.728;2023-04-06T02:23:12;99708.88;;;20.18;21.79
51249;BME280;39642;47.556;18.728;2023-04-06T02:25:38;99700.19;;;20.16;21.75
51249;BME280;39642;47.556;18.728;2023-04-06T02:28:04;99700.19;;;20.16;21.80
51249;BME280;39642;47.556;18.728;2023-04-06T02:30:29;99703.75;;;20.15;22.00
51249;BME280;39642;47.556;18.728;2023-04-06T02:33:00;99700.25;;;20.14;21.68
51249;BME280;39642;47.556;18.728;2023-04-06T02:35:28;99702.06;;;20.14;21.70
51249;BME280;39642;47.556;18.728;2023-04-06T02:37:54;99700.38;;;20.13;21.71
51249;BME280;39642;47.556;18.728;2023-04-06T02:40:20;99696.84;;;20.12;21.64
51249;BME280;39642;47.556;18.728;2023-04-06T02:42:46;99694.31;;;20.11;21.76
51249;BME280;39642;47.556;18.728;2023-04-06T02:45:12;99694.31;;;20.11;21.67
51249;BME280;39642;47.556;18.728;2023-04-06T02:47:38;99679.38;;;20.10;21.72
51249;BME280;39642;47.556;18.728;2023-04-06T02:50:04;99694.31;;;20.11;21.70
51249;BME280;39642;47.556;18.728;2023-04-06T02:52:31;99680.34;;;20.09;21.82
51249;BME280;39642;47.556;18.728;2023-04-06T02:54:57;99687.38;;;20.08;21.78
51249;BME280;39642;47.556;18.728;2023-04-06T02:57:22;99686.53;;;20.08;21.67
51249;BME280;39642;47.556;18.728;2023-04-06T02:59:48;99680.41;;;20.07;21.81
51249;BME280;39642;47.556;18.728;2023-04-06T03:02:14;99683.06;;;20.07;21.60
51249;BME280;39642;47.556;18.728;2023-04-06T03:04:42;99681.25;;;20.08;21.63
51249;BME280;39642;47.556;18.728;2023-04-06T03:07:08;99672.47;;;20.07;21.68
51249;BME280;39642;47.556;18.728;2023-04-06T03:09:39;99676.81;;;20.08;21.60
51249;BME280;39642;47.556;18.728;2023-04-06T03:12:05;99677.69;;;20.09;21.45
51249;BME280;39642;47.556;18.728;2023-04-06T03:14:31;99679.38;;;20.10;21.56
51249;BME280;39642;47.556;18.728;2023-04-06T03:16:56;99678.44;;;20.11;21.42
51249;BME280;39642;47.556;18.728;2023-04-06T03:19:22;99676.66;;;20.11;21.44
51249;BME280;39642;47.556;18.728;2023-04-06T03:21:48;99679.22;;;20.13;21.44
51249;BME280;39642;47.556;18.728;2023-04-06T03:24:14;99683.56;;;20.14;21.33
51249;BME280;39642;47.556;18.728;2023-04-06T03:26:40;99680.91;;;20.14;21.32
51249;BME280;39642;47.556;18.728;2023-04-06T03:29:06;99678.19;;;20.15;21.41
51249;BME280;39642;47.556;18.728;2023-04-06T03:31:32;99676.38;;;20.16;21.36
51249;BME280;39642;47.556;18.728;2023-04-06T03:33:58;99672.78;;;20.17;21.35
51249;BME280;39642;47.556;18.728;2023-04-06T03:36:24;99665.72;;;20.17;21.40
51249;BME280;39642;47.556;18.728;2023-04-06T03:38:51;99684.12;;;20.19;21.32
51249;BME280;39642;47.556;18.728;2023-04-06T03:41:19;99686.75;;;20.19;21.42
51249;BME280;39642;47.556;18.728;2023-04-06T03:43:45;99684.22;;;20.17;21.40
51249;BME280;39642;47.556;18.728;2023-04-06T03:46:11;99684.12;;;20.19;21.35
51249;BME280;39642;47.556;18.728;2023-04-06T03:48:37;99684.12;;;20.19;21.49
51249;BME280;39642;47.556;18.728;2023-04-06T03:51:03;99690.38;;;20.18;21.49
51249;BME280;39642;47.556;18.728;2023-04-06T03:53:29;99690.44;;;20.16;21.50
51249;BME280;39642;47.556;18.728;2023-04-06T03:55:55;99684.31;;;20.16;21.43
51249;BME280;39642;47.556;18.728;2023-04-06T03:58:21;99686.97;;;20.16;21.56
51249;BME280;39642;47.556;18.728;2023-04-06T04:00:47;99677.31;;;20.15;21.41
51249;BME280;39642;47.556;18.728;2023-04-06T04:03:13;99682.59;;;20.15;21.49
51249;BME280;39642;47.556;18.728;2023-04-06T04:05:39;99685.34;;;20.13;21.51
51249;BME280;39642;47.556;18.728;2023-04-06T04:08:04;99678.34;;;20.12;21.44
51249;BME280;39642;47.556;18.728;2023-04-06T04:10:30;99688.06;;;20.12;21.62
51249;BME280;39642;47.556;18.728;2023-04-06T04:12:56;99686.38;;;20.11;21.51
51249;BME280;39642;47.556;18.728;2023-04-06T04:15:22;99684.66;;;20.10;21.59
51249;BME280;39642;47.556;18.728;2023-04-06T04:17:48;99685.50;;;20.10;21.59
51249;BME280;39642;47.556;18.728;2023-04-06T04:20:15;99678.63;;;20.08;21.58
51249;BME280;39642;47.556;18.728;2023-04-06T04:22:42;99680.41;;;20.07;21.70
51249;BME280;39642;47.556;18.728;2023-04-06T04:25:09;99681.37;;;20.06;21.58
51249;BME280;39642;47.556;18.728;2023-04-06T04:27:35;99682.28;;;20.05;21.71
51249;BME280;39642;47.556;18.728;2023-04-06T04:30:01;99690.31;;;20.04;21.73
51249;BME280;39642;47.556;18.728;2023-04-06T04:32:27;99693.91;;;20.03;21.53
51249;BME280;39642;47.556;18.728;2023-04-06T04:34:53;99689.47;;;20.03;21.72
51249;BME280;39642;47.556;18.728;2023-04-06T04:37:19;99695.69;;;20.02;21.65
51249;BME280;39642;47.556;18.728;2023-04-06T04:39:45;99687.75;;;20.02;21.57
51249;BME280;39642;47.556;18.728;2023-04-06T04:42:11;99686.88;;;20.02;21.65
51249;BME280;39642;47.556;18.728;2023-04-06T04:44:37;99681.72;;;20.00;21.51
51249;BME280;39642;47.556;18.728;2023-04-06T04:47:03;99690.56;;;19.99;21.55
51249;BME280;39642;47.556;18.728;2023-04-06T04:49:29;99691.53;;;19.98;21.62
51249;BME280;39642;47.556;18.728;2023-04-06T04:51:55;99686.22;;;19.98;21.55
51249;BME280;39642;47.556;18.728;2023-04-06T04:54:21;99692.38;;;19.99;21.73
51249;BME280;39642;47.556;18.728;2023-04-06T04:56:47;99688.97;;;19.96;21.43
51249;BME280;39642;47.556;18.728;2023-04-06T04:59:13;99687.16;;;19.97;21.62
51249;BME280;39642;47.556;18.728;2023-04-06T05:01:38;99686.31;;;19.96;21.50
51249;BME280;39642;47.556;18.728;2023-04-06T05:04:05;99676.69;;;19.95;21.69
51249;BME280;39642;47.556;18.728;2023-04-06T05:06:31;99661.69;;;19.96;21.48
51249;BME280;39642;47.556;18.728;2023-04-06T05:08:57;99657.44;;;19.93;21.51
51249;BME280;39642;47.556;18.728;2023-04-06T05:11:22;99656.47;;;19.94;21.68
51249;BME280;39642;47.556;18.728;2023-04-06T05:13:48;99663.56;;;19.94;21.51
51249;BME280;39642;47.556;18.728;2023-04-06T05:16:14;99654.78;;;19.93;21.55
51249;BME280;39642;47.556;18.728;2023-04-06T05:18:40;99659.13;;;19.94;21.60
51249;BME280;39642;47.556;18.728;2023-04-06T05:21:06;99662.72;;;19.93;21.64
51249;BME280;39642;47.556;18.728;2023-04-06T05:23:32;99662.72;;;19.93;21.71
51249;BME280;39642;47.556;18.728;2023-04-06T05:25:58;99660.06;;;19.93;21.80
51249;BME280;39642;47.556;18.728;2023-04-06T05:28:24;99659.13;;;19.94;21.71
51249;BME280;39642;47.556;18.728;2023-04-06T05:30:50;99661.88;;;19.93;21.70
51249;BME280;39642;47.556;18.728;2023-04-06T05:33:16;99652.16;;;19.93;21.77
51249;BME280;39642;47.556;18.728;2023-04-06T05:35:42;99650.44;;;19.92;21.70
51249;BME280;39642;47.556;18.728;2023-04-06T05:38:09;99651.31;;;19.93;21.99
51249;BME280;39642;47.556;18.728;2023-04-06T05:40:37;99650.44;;;19.92;21.69
51249;BME280;39642;47.556;18.728;2023-04-06T05:43:07;99648.75;;;19.91;21.53
51249;BME280;39642;47.556;18.728;2023-04-06T05:45:33;99645.16;;;19.92;21.65
51249;BME280;39642;47.556;18.728;2023-04-06T05:48:01;99636.38;;;19.92;21.48
51249;BME280;39642;47.556;18.728;2023-04-06T05:50:27;99641.56;;;19.93;21.70
51249;BME280;39642;47.556;18.728;2023-04-06T05:52:54;99629.28;;;19.92;21.51
51249;BME280;39642;47.556;18.728;2023-04-06T05:55:20;99636.28;;;19.93;21.42
51249;BME280;39642;47.556;18.728;2023-04-06T05:57:46;99633.66;;;19.93;21.57
51249;BME280;39642;47.556;18.728;2023-04-06T06:00:12;99637.13;;;19.94;21.65
51249;BME280;39642;47.556;18.728;2023-04-06T06:02:38;99629.22;;;19.94;21.69
51249;BME280;39642;47.556;18.728;2023-04-06T06:05:05;99631.78;;;19.95;21.79
51249;BME280;39642;47.556;18.728;2023-04-06T06:07:31;99625.53;;;19.96;21.87
51249;BME280;39642;47.556;18.728;2023-04-06T06:09:58;99622.88;;;19.96;21.82
51249;BME280;39642;47.556;18.728;2023-04-06T06:12:24;99620.16;;;19.98;21.58
51249;BME280;39642;47.556;18.728;2023-04-06T06:14:50;99628.94;;;19.99;21.76
51249;BME280;39642;47.556;18.728;2023-04-06T06:17:15;99618.38;;;19.99;21.79
51249;BME280;39642;47.556;18.728;2023-04-06T06:19:41;99620.94;;;20.00;21.81
51249;BME280;39642;47.556;18.728;2023-04-06T06:22:07;99625.25;;;20.01;21.96
51249;BME280;39642;47.556;18.728;2023-04-06T06:24:33;99614.69;;;20.01;21.79
51249;BME280;39642;47.556;18.728;2023-04-06T06:26:59;99613.75;;;20.02;21.75
51249;BME280;39642;47.556;18.728;2023-04-06T06:29:25;99612.81;;;20.03;21.88
51249;BME280;39642;47.556;18.728;2023-04-06T06:31:51;99612.72;;;20.05;21.73
51249;BME280;39642;47.556;18.728;2023-04-06T06:34:17;99609.25;;;20.04;21.76
51249;BME280;39642;47.556;18.728;2023-04-06T06:36:43;99595.91;;;20.06;21.78
51249;BME280;39642;47.556;18.728;2023-04-06T06:39:09;99597.63;;;20.07;21.68
51249;BME280;39642;47.556;18.728;2023-04-06T06:41:35;99594.03;;;20.08;21.67
51249;BME280;39642;47.556;18.728;2023-04-06T06:44:01;99602.72;;;20.10;21.68
51249;BME280;39642;47.556;18.728;2023-04-06T06:46:27;99599.16;;;20.11;21.80
51249;BME280;39642;47.556;18.728;2023-04-06T06:48:53;99604.31;;;20.12;21.59
51249;BME280;39642;47.556;18.728;2023-04-06T06:51:19;99602.44;;;20.14;21.58
51249;BME280;39642;47.556;18.728;2023-04-06T06:53:45;99596.22;;;20.15;21.64
51249;BME280;39642;47.556;18.728;2023-04-06T06:56:11;99595.28;;;20.16;21.65
51249;BME280;39642;47.556;18.728;2023-04-06T06:58:38;99590.84;;;20.17;21.62
51249;BME280;39642;47.556;18.728;2023-04-06T07:01:04;99592.34;;;20.21;21.56
51249;BME280;39642;47.556;18.728;2023-04-06T07:03:30;99587.81;;;20.23;21.55
51249;BME280;39642;47.556;18.728;2023-04-06T07:05:56;99588.59;;;20.25;21.62
51249;BME280;39642;47.556;18.728;2023-04-06T07:08:23;99591.16;;;20.27;21.52
51249;BME280;39642;47.556;18.728;2023-04-06T07:10:50;99583.09;;;20.28;21.62
51249;BME280;39642;47.556;18.728;2023-04-06T07:13:18;99583.03;;;20.30;21.71
51249;BME280;39642;47.556;18.728;2023-04-06T07:15:47;99576.69;;;20.32;21.53
51249;BME280;39642;47.556;18.728;2023-04-06T07:18:13;99571.41;;;20.32;21.68
51249;BME280;39642;47.556;18.728;2023-04-06T07:20:39;99576.59;;;20.34;21.64
51249;BME280;39642;47.556;18.728;2023-04-06T07:23:06;99570.34;;;20.35;21.77
51249;BME280;39642;47.556;18.728;2023-04-06T07:25:32;99572.06;;;20.36;21.72
51249;BME280;39642;47.556;18.728;2023-04-06T07:27:57;99566.66;;;20.37;21.72
51249;BME280;39642;47.556;18.728;2023-04-06T07:30:24;99573.75;;;20.37;21.76
51249;BME280;39642;47.556;18.728;2023-04-06T07:32:51;99571.03;;;20.38;21.65
51249;BME280;39642;47.556;18.728;2023-04-06T07:35:17;99578.00;;;20.39;21.71
51249;BME280;39642;47.556;18.728;2023-04-06T07:37:43;99572.72;;;20.39;21.84
51249;BME280;39642;47.556;18.728;2023-04-06T07:40:09;99565.75;;;20.38;21.86
51249;BME280;39642;47.556;18.728;2023-04-06T07:42:35;99569.22;;;20.39;21.83
51249;BME280;39642;47.556;18.728;2023-04-06T07:45:01;99564.78;;;20.39;21.90
51249;BME280;39642;47.556;18.728;2023-04-06T07:47:28;99555.16;;;20.38;22.02
51249;BME280;39642;47.556;18.728;2023-04-06T07:49:54;99563.94;;;20.39;21.90
51249;BME280;39642;47.556;18.728;2023-04-06T07:52:21;99563.09;;;20.38;21.72
51249;BME280;39642;47.556;18.728;2023-04-06T07:54:47;99561.28;;;20.39;21.92
51249;BME280;39642;47.556;18.728;2023-04-06T07:57:15;99561.28;;;20.39;21.97
51249;BME280;39642;47.556;18.728;2023-04-06T07:59:41;99564.78;;;20.39;22.00
51249;BME280;39642;47.556;18.728;2023-04-06T08:02:07;99565.75;;;20.38;21.98
51249;BME280;39642;47.556;18.728;2023-04-06T08:04:33;99571.03;;;20.38;22.04
51249;BME280;39642;47.556;18.728;2023-04-06T08:06:59;99568.38;;;20.38;22.07
51249;BME280;39642;47.556;18.728;2023-04-06T08:09:25;99556.09;;;20.37;22.17
51249;BME280;39642;47.556;18.728;2023-04-06T08:11:50;99561.38;;;20.37;22.14
51249;BME280;39642;47.556;18.728;2023-04-06T08:14:16;99556.97;;;20.38;22.02
51249;BME280;39642;47.556;18.728;2023-04-06T08:16:42;99560.44;;;20.38;21.98
51249;BME280;39642;47.556;18.728;2023-04-06T08:19:08;99557.81;;;20.38;22.16
51249;BME280;39642;47.556;18.728;2023-04-06T08:21:35;99564.91;;;20.38;22.15
51249;BME280;39642;47.556;18.728;2023-04-06T08:24:01;99562.12;;;20.39;22.08
51249;BME280;39642;47.556;18.728;2023-04-06T08:26:27;99547.22;;;20.38;22.21
51249;BME280;39642;47.556;18.728;2023-04-06T08:28:53;99549.03;;;20.38;22.30
51249;BME280;39642;47.556;18.728;2023-04-06T08:31:20;99551.69;;;20.38;22.21
51249;BME280;39642;47.556;18.728;2023-04-06T08:33:45;99559.50;;;20.39;22.07
51249;BME280;39642;47.556;18.728;2023-04-06T08:36:13;99550.72;;;20.39;22.19
51249;BME280;39642;47.556;18.728;2023-04-06T08:38:40;99551.56;;;20.39;22.08
51249;BME280;39642;47.556;18.728;2023-04-06T08:41:10;99540.97;;;20.39;22.01
51249;BME280;39642;47.556;18.728;2023-04-06T08:43:44;99542.69;;;20.41;21.92
51249;BME280;39642;47.556;18.728;2023-04-06T08:46:12;99525.88;;;20.42;21.83
51249;BME280;39642;47.556;18.728;2023-04-06T08:48:40;99541.75;;;20.42;22.06
51249;BME280;39642;47.556;18.728;2023-04-06T08:51:06;99532.88;;;20.43;22.03
51249;BME280;39642;47.556;18.728;2023-04-06T08:53:33;99531.91;;;20.44;21.93
51249;BME280;39642;47.556;18.728;2023-04-06T08:55:59;99532.75;;;20.44;22.01
51249;BME280;39642;47.556;18.728;2023-04-06T08:58:27;99515.97;;;20.45;22.07
51249;BME280;39642;47.556;18.728;2023-04-06T09:00:54;99535.31;;;20.46;22.04
51249;BME280;39642;47.556;18.728;2023-04-06T09:03:21;99521.16;;;20.47;22.06
51249;BME280;39642;47.556;18.728;2023-04-06T09:05:47;99522.00;;;20.47;22.02
51249;BME280;39642;47.556;18.728;2023-04-06T09:08:13;99523.81;;;20.47;22.12
51249;BME280;39642;47.556;18.728;2023-04-06T09:10:42;99514.16;;;20.46;22.11
51249;BME280;39642;47.556;18.728;2023-04-06T09:13:09;99522.00;;;20.47;22.19
51249;BME280;39642;47.556;18.728;2023-04-06T09:15:35;99514.91;;;20.48;22.08
51249;BME280;39642;47.556;18.728;2023-04-06T09:18:01;99500.84;;;20.47;22.06
51249;BME280;39642;47.556;18.728;2023-04-06T09:20:27;99508.78;;;20.47;22.05
51249;BME280;39642;47.556;18.728;2023-04-06T09:22:54;99501.69;;;20.48;22.08
51249;BME280;39642;47.556;18.728;2023-04-06T09:25:22;99495.44;;;20.49;22.26
51249;BME280;39642;47.556;18.728;2023-04-06T09:28:01;99506.03;;;20.49;22.23
51249;BME280;39642;47.556;18.728;2023-04-06T09:30:28;99500.75;;;20.49;22.17
51249;BME280;39642;47.556;18.728;2023-04-06T09:32:56;99496.41;;;20.48;22.19
51249;BME280;39642;47.556;18.728;2023-04-06T09:35:23;99488.47;;;20.48;22.18
51249;BME280;39642;47.556;18.728;2023-04-06T09:37:50;99491.13;;;20.48;22.18
51249;BME280;39642;47.556;18.728;2023-04-06T09:40:17;99492.91;;;20.47;22.20
51249;BME280;39642;47.556;18.728;2023-04-06T09:42:50;99497.37;;;20.47;22.19
51249;BME280;39642;47.556;18.728;2023-04-06T09:45:18;99497.37;;;20.47;22.26
51249;BME280;39642;47.556;18.728;2023-04-06T09:47:45;99493.00;;;20.46;22.20
51249;BME280;39642;47.556;18.728;2023-04-06T09:50:12;99500.19;;;20.44;22.15
51249;BME280;39642;47.556;18.728;2023-04-06T09:52:50;99494.91;;;20.44;22.27
51249;BME280;39642;47.556;18.728;2023-04-06T09:55:32;99486.03;;;20.45;22.22
51249;BME280;39642;47.556;18.728;2023-04-06T09:58:05;99491.31;;;20.45;22.25
51249;BME280;39642;47.556;18.728;2023-04-06T10:00:34;99483.37;;;20.45;22.25
51249;BME280;39642;47.556;18.728;2023-04-06T10:03:21;99495.66;;;20.46;22.25
51249;BME280;39642;47.556;18.728;2023-04-06T10:05:55;99485.91;;;20.46;22.17
51249;BME280;39642;47.556;18.728;2023-04-06T10:08:29;99485.00;;;20.47;22.16
51249;BME280;39642;47.556;18.728;2023-04-06T10:10:58;99493.75;;;20.48;22.16
51249;BME280;39642;47.556;18.728;2023-04-06T10:13:25;99489.31;;;20.48;22.23
51249;BME280;39642;47.556;18.728;2023-04-06T10:15:52;99489.44;;;20.47;22.23
51249;BME280;39642;47.556;18.728;2023-04-06T10:18:18;99488.47;;;20.48;22.13
51249;BME280;39642;47.556;18.728;2023-04-06T10:20:52;99476.94;;;20.49;22.18
51249;BME280;39642;47.556;18.728;2023-04-06T10:23:26;99480.44;;;20.49;22.29
51249;BME280;39642;47.556;18.728;2023-04-06T10:25:57;99481.28;;;20.50;22.29
51249;BME280;39642;47.556;18.728;2023-04-06T10:28:24;99475.16;;;20.49;22.26
51249;BME280;39642;47.556;18.728;2023-04-06T10:30:57;99479.50;;;20.50;22.35
51249;BME280;39642;47.556;18.728;2023-04-06T10:33:23;99481.28;;;20.50;22.27
51249;BME280;39642;47.556;18.728;2023-04-06T10:35:49;99476.00;;;20.50;22.20
51249;BME280;39642;47.556;18.728;2023-04-06T10:38:16;99470.72;;;20.50;22.16
51249;BME280;39642;47.556;18.728;2023-04-06T10:40:46;99462.88;;;20.48;22.30
51249;BME280;39642;47.556;18.728;2023-04-06T10:43:22;99457.50;;;20.50;22.23
51249;BME280;39642;47.556;18.728;2023-04-06T10:45:55;99461.06;;;20.49;22.25
51249;BME280;39642;47.556;18.728;2023-04-06T10:48:21;99464.47;;;20.51;22.37
51249;BME280;39642;47.556;18.728;2023-04-06T10:50:49;99447.84;;;20.49;22.15
51249;BME280;39642;47.556;18.728;2023-04-06T10:53:25;99455.69;;;20.50;22.25
51249;BME280;39642;47.556;18.728;2023-04-06T10:55:54;99463.72;;;20.49;22.40
51249;BME280;39642;47.556;18.728;2023-04-06T10:58:20;99447.00;;;20.48;22.41
51249;BME280;39642;47.556;18.728;2023-04-06T11:00:47;99453.13;;;20.49;21.99
51249;BME280;39642;47.556;18.728;2023-04-06T11:03:13;99443.44;;;20.49;22.12
51249;BME280;39642;47.556;18.728;2023-04-06T11:05:50;99438.13;;;20.49;22.21
51249;BME280;39642;47.556;18.728;2023-04-06T11:10:49;99423.09;;;20.50;22.29
51249;BME280;39642;47.556;18.728;2023-04-06T11:13:15;99435.38;;;20.51;22.40
51249;BME280;39642;47.556;18.728;2023-04-06T11:15:41;99431.81;;;20.52;22.26
51249;BME280;39642;47.556;18.728;2023-04-06T11:18:07;99427.44;;;20.51;22.17
51249;BME280;39642;47.556;18.728;2023-04-06T11:20:32;99443.22;;;20.52;22.45
51249;BME280;39642;47.556;18.728;2023-04-06T11:22:58;99445.88;;;20.52;22.27
51249;BME280;39642;47.556;18.728;2023-04-06T11:25:27;99423.03;;;20.51;22.36
51249;BME280;39642;47.556;18.728;2023-04-06T11:27:55;99429.16;;;20.52;22.41
51249;BME280;39642;47.556;18.728;2023-04-06T11:30:21;99428.19;;;20.53;22.10
51249;BME280;39642;47.556;18.728;2023-04-06T11:32:47;99424.78;;;20.51;22.45
51249;BME280;39642;47.556;18.728;2023-04-06T11:35:21;99417.81;;;20.50;22.40
51249;BME280;39642;47.556;18.728;2023-04-06T11:37:49;99422.16;;;20.51;22.52
51249;BME280;39642;47.556;18.728;2023-04-06T11:40:19;99424.78;;;20.51;22.49
51249;BME280;39642;47.556;18.728;2023-04-06T11:42:52;99423.09;;;20.50;22.37
51249;BME280;39642;47.556;18.728;2023-04-06T11:45:18;99422.16;;;20.51;22.25
51249;BME280;39642;47.556;18.728;2023-04-06T11:47:44;99426.69;;;20.49;22.48
51249;BME280;39642;47.556;18.728;2023-04-06T11:50:12;99409.97;;;20.48;22.38
51249;BME280;39642;47.556;18.728;2023-04-06T11:52:40;99416.09;;;20.49;22.48
51249;BME280;39642;47.556;18.728;2023-04-06T11:55:17;99409.03;;;20.49;22.59
51249;BME280;39642;47.556;18.728;2023-04-06T11:57:43;99397.59;;;20.49;22.77
51249;BME280;39642;47.556;18.728;2023-04-06T12:00:10;99405.66;;;20.47;22.67
51249;BME280;39642;47.556;18.728;2023-04-06T12:02:37;99411.88;;;20.46;22.49
51249;BME280;39642;47.556;18.728;2023-04-06T12:05:04;99403.09;;;20.46;22.29
51249;BME280;39642;47.556;18.728;2023-04-06T12:07:31;99411.03;;;20.46;22.56
51249;BME280;39642;47.556;18.728;2023-04-06T12:09:58;99408.47;;;20.44;22.42
51249;BME280;39642;47.556;18.728;2023-04-06T12:12:24;99408.47;;;20.44;22.60
51249;BME280;39642;47.556;18.728;2023-04-06T12:14:50;99397.03;;;20.44;22.47
51249;BME280;39642;47.556;18.728;2023-04-06T12:17:16;99406.69;;;20.45;22.28
51249;BME280;39642;47.556;18.728;2023-04-06T12:19:42;99409.34;;;20.45;22.27
51249;BME280;39642;47.556;18.728;2023-04-06T12:22:08;99396.12;;;20.45;22.49
51249;BME280;39642;47.556;18.728;2023-04-06T12:24:33;99400.44;;;20.46;22.45
51249;BME280;39642;47.556;18.728;2023-04-06T12:26:59;99399.69;;;20.44;22.56
51249;BME280;39642;47.556;18.728;2023-04-06T12:29:27;99412.00;;;20.45;22.51
51249;BME280;39642;47.556;18.728;2023-04-06T12:31:53;99392.59;;;20.44;22.31
51249;BME280;39642;47.556;18.728;2023-04-06T12:34:18;99399.69;;;20.44;22.42
51249;BME280;39642;47.556;18.728;2023-04-06T12:36:44;99402.34;;;20.44;22.58
51249;BME280;39642;47.556;18.728;2023-04-06T12:39:10;99402.34;;;20.44;22.56
51249;BME280;39642;47.556;18.728;2023-04-06T12:41:37;99406.78;;;20.43;22.27
51249;BME280;39642;47.556;18.728;2023-04-06T12:44:06;99398.84;;;20.43;22.44
51249;BME280;39642;47.556;18.728;2023-04-06T12:46:31;99390.91;;;20.43;22.43
51249;BME280;39642;47.556;18.728;2023-04-06T12:48:58;99392.72;;;20.43;22.22
51249;BME280;39642;47.556;18.728;2023-04-06T12:51:28;99389.19;;;20.42;22.62